sensor_id;sensor_type;location;lat;lon;timestamp;P1;P2;P0
23240;PMS7003;11789;53.482;9.862;2023-01-19T00:00:11;45.00;41.33;23.33
23240;PMS7003;11789;53.482;9.862;2023-01-19T00:02:39;45.00;39.00;25.33
23240;PMS7003;11789;53.482;9.862;2023-01-19T00:05:07;44.33;38.67;26.00
23240;PMS7003;11789;53.482;9.862;2023-01-19T00:07:33;47.33;38.33;23.67
23240;PMS7003;11789;53.482;9.862;2023-01-19T00:09:58;45.67;40.33;26.00
23240;PMS7003;11789;53.482;9.862;2023-01-19T00:12:24;43.33;39.67;26.00
23240;PMS7003;11789;53.482;9.862;2023-01-19T00:14:50;44.33;39.00;24.00
23240;PMS7003;11789;53.482;9.862;2023-01-19T00:17:16;44.00;38.33;25.67
23240;PMS7003;11789;53.482;9.862;2023-01-19T00:19:41;44.33;39.67;25.00
23240;PMS7003;11789;53.482;9.862;2023-01-19T00:22:07;41.67;39.33;25.00
23240;PMS7003;11789;53.482;9.862;2023-01-19T00:24:32;41.00;38.67;22.67
23240;PMS7003;11789;53.482;9.862;2023-01-19T00:26:58;51.33;41.67;26.00
23240;PMS7003;11789;53.482;9.862;2023-01-19T00:29:23;48.67;40.33;26.00
23240;PMS7003;11789;53.482;9.862;2023-01-19T00:31:49;55.33;45.00;28.33
23240;PMS7003;11789;53.482;9.862;2023-01-19T00:34:15;67.50;50.50;28.25
23240;PMS7003;11789;53.482;9.862;2023-01-19T00:36:40;16.67;10.00;0.00
23240;PMS7003;11789;53.482;9.862;2023-01-19T00:39:06;52.67;37.00;26.00
23240;PMS7003;11789;53.482;9.862;2023-01-19T00:41:32;70.25;54.00;31.00
23240;PMS7003;11789;53.482;9.862;2023-01-19T00:44:16;71.00;56.75;33.25
23240;PMS7003;11789;53.482;9.862;2023-01-19T00:46:41;49.67;43.33;28.00
23240;PMS7003;11789;53.482;9.862;2023-01-19T00:49:07;48.00;40.00;27.00
23240;PMS7003;11789;53.482;9.862;2023-01-19T00:51:33;46.00;40.67;28.00
23240;PMS7003;11789;53.482;9.862;2023-01-19T00:53:58;46.33;39.00;23.00
23240;PMS7003;11789;53.482;9.862;2023-01-19T00:56:29;46.00;41.33;26.00
23240;PMS7003;11789;53.482;9.862;2023-01-19T00:58:55;41.33;37.67;24.00
23240;PMS7003;11789;53.482;9.862;2023-01-19T01:01:20;37.00;37.00;26.00
23240;PMS7003;11789;53.482;9.862;2023-01-19T01:03:45;43.00;35.33;23.33
23240;PMS7003;11789;53.482;9.862;2023-01-19T01:06:11;45.67;41.33;25.00
23240;PMS7003;11789;53.482;9.862;2023-01-19T01:08:36;52.33;42.67;26.00
23240;PMS7003;11789;53.482;9.862;2023-01-19T01:11:02;42.33;36.67;25.33
23240;PMS7003;11789;53.482;9.862;2023-01-19T01:13:27;38.67;36.00;24.67
23240;PMS7003;11789;53.482;9.862;2023-01-19T01:15:53;51.33;39.00;23.33
23240;PMS7003;11789;53.482;9.862;2023-01-19T01:18:20;40.00;37.00;23.67
23240;PMS7003;11789;53.482;9.862;2023-01-19T01:20:45;46.33;39.67;23.67
23240;PMS7003;11789;53.482;9.862;2023-01-19T01:23:11;44.00;36.67;24.00
23240;PMS7003;11789;53.482;9.862;2023-01-19T01:25:37;45.33;38.67;23.67
23240;PMS7003;11789;53.482;9.862;2023-01-19T01:28:03;45.00;39.67;24.67
23240;PMS7003;11789;53.482;9.862;2023-01-19T01:30:32;46.33;37.00;25.00
23240;PMS7003;11789;53.482;9.862;2023-01-19T01:32:58;40.00;37.00;23.33
23240;PMS7003;11789;53.482;9.862;2023-01-19T01:35:24;40.33;37.67;23.00
23240;PMS7003;11789;53.482;9.862;2023-01-19T01:37:49;41.67;37.33;25.33
23240;PMS7003;11789;53.482;9.862;2023-01-19T01:40:15;35.33;31.67;24.33
23240;PMS7003;11789;53.482;9.862;2023-01-19T01:42:42;39.67;37.00;23.33
23240;PMS7003;11789;53.482;9.862;2023-01-19T01:47:57;40.00;36.67;24.67
23240;PMS7003;11789;53.482;9.862;2023-01-19T01:50:37;39.00;38.00;25.00
23240;PMS7003;11789;53.482;9.862;2023-01-19T01:53:28;48.33;40.67;26.67
23240;PMS7003;11789;53.482;9.862;2023-01-19T01:55:56;44.00;38.00;23.67
23240;PMS7003;11789;53.482;9.862;2023-01-19T01:58:23;38.00;36.00;24.00
23240;PMS7003;11789;53.482;9.862;2023-01-19T02:00:49;40.00;38.33;23.00
23240;PMS7003;11789;53.482;9.862;2023-01-19T02:03:33;39.33;38.00;23.00
23240;PMS7003;11789;53.482;9.862;2023-01-19T02:06:00;45.00;38.00;24.33
23240;PMS7003;11789;53.482;9.862;2023-01-19T02:08:33;38.67;36.67;19.00
23240;PMS7003;11789;53.482;9.862;2023-01-19T02:11:21;46.33;38.33;23.33
23240;PMS7003;11789;53.482;9.862;2023-01-19T02:14:05;48.00;39.33;24.33
23240;PMS7003;11789;53.482;9.862;2023-01-19T02:16:31;47.67;40.33;25.00
23240;PMS7003;11789;53.482;9.862;2023-01-19T02:18:58;42.67;38.33;24.00
23240;PMS7003;11789;53.482;9.862;2023-01-19T02:24:10;46.33;36.33;23.33
23240;PMS7003;11789;53.482;9.862;2023-01-19T02:26:40;45.00;37.67;26.00
23240;PMS7003;11789;53.482;9.862;2023-01-19T02:31:36;37.67;33.67;24.00
23240;PMS7003;11789;53.482;9.862;2023-01-19T02:34:04;36.00;36.00;23.00
23240;PMS7003;11789;53.482;9.862;2023-01-19T02:36:34;49.33;40.00;25.33
23240;PMS7003;11789;53.482;9.862;2023-01-19T02:39:07;41.00;37.33;25.33
23240;PMS7003;11789;53.482;9.862;2023-01-19T02:41:37;49.00;39.67;23.00
23240;PMS7003;11789;53.482;9.862;2023-01-19T02:44:07;33.67;27.33;17.00
23240;PMS7003;11789;53.482;9.862;2023-01-19T02:46:35;43.00;36.00;25.00
23240;PMS7003;11789;53.482;9.862;2023-01-19T02:49:02;41.67;37.33;24.00
23240;PMS7003;11789;53.482;9.862;2023-01-19T02:51:27;43.33;34.67;21.67
23240;PMS7003;11789;53.482;9.862;2023-01-19T02:57:37;41.00;36.00;24.33
23240;PMS7003;11789;53.482;9.862;2023-01-19T03:05:17;41.33;38.67;22.67
23240;PMS7003;11789;53.482;9.862;2023-01-19T03:11:21;46.33;39.33;26.33
23240;PMS7003;11789;53.482;9.862;2023-01-19T03:16:20;44.00;38.00;24.67
23240;PMS7003;11789;53.482;9.862;2023-01-19T03:18:56;45.67;38.33;25.33
23240;PMS7003;11789;53.482;9.862;2023-01-19T03:21:28;46.67;40.67;25.00
23240;PMS7003;11789;53.482;9.862;2023-01-19T03:23:59;45.33;39.00;24.00
23240;PMS7003;11789;53.482;9.862;2023-01-19T03:26:27;44.00;35.33;20.67
23240;PMS7003;11789;53.482;9.862;2023-01-19T03:28:57;50.00;38.33;24.00
23240;PMS7003;11789;53.482;9.862;2023-01-19T03:31:27;40.00;37.33;24.33
23240;PMS7003;11789;53.482;9.862;2023-01-19T03:33:58;43.00;37.00;23.33
23240;PMS7003;11789;53.482;9.862;2023-01-19T03:39:00;51.00;40.67;25.00
23240;PMS7003;11789;53.482;9.862;2023-01-19T03:41:29;43.00;40.67;26.67
23240;PMS7003;11789;53.482;9.862;2023-01-19T03:43:56;49.00;41.00;25.33
23240;PMS7003;11789;53.482;9.862;2023-01-19T03:46:23;39.67;37.00;25.00
23240;PMS7003;11789;53.482;9.862;2023-01-19T03:48:50;43.00;39.00;25.33
23240;PMS7003;11789;53.482;9.862;2023-01-19T03:51:16;47.67;37.00;21.67
23240;PMS7003;11789;53.482;9.862;2023-01-19T03:53:43;43.67;39.00;24.00
23240;PMS7003;11789;53.482;9.862;2023-01-19T03:56:19;43.33;37.33;25.00
23240;PMS7003;11789;53.482;9.862;2023-01-19T03:58:47;41.00;38.67;26.00
23240;PMS7003;11789;53.482;9.862;2023-01-19T04:01:13;39.33;35.33;24.00
23240;PMS7003;11789;53.482;9.862;2023-01-19T04:03:39;46.00;40.33;23.00
23240;PMS7003;11789;53.482;9.862;2023-01-19T04:06:06;43.33;39.00;26.00
23240;PMS7003;11789;53.482;9.862;2023-01-19T04:08:32;51.00;43.00;27.67
23240;PMS7003;11789;53.482;9.862;2023-01-19T04:10:58;46.00;41.67;27.67
23240;PMS7003;11789;53.482;9.862;2023-01-19T04:13:23;47.00;42.00;27.33
23240;PMS7003;11789;53.482;9.862;2023-01-19T04:15:51;50.67;42.67;27.67
23240;PMS7003;11789;53.482;9.862;2023-01-19T04:18:16;56.33;42.67;27.67
23240;PMS7003;11789;53.482;9.862;2023-01-19T04:20:41;47.33;42.00;26.00
23240;PMS7003;11789;53.482;9.862;2023-01-19T04:23:07;52.67;43.00;23.67
23240;PMS7003;11789;53.482;9.862;2023-01-19T04:25:32;55.67;44.00;28.67
23240;PMS7003;11789;53.482;9.862;2023-01-19T04:27:58;49.00;40.33;25.00
23240;PMS7003;11789;53.482;9.862;2023-01-19T04:30:23;48.33;42.67;27.67
23240;PMS7003;11789;53.482;9.862;2023-01-19T04:32:49;45.00;41.00;27.67
23240;PMS7003;11789;53.482;9.862;2023-01-19T04:35:15;53.33;43.67;27.67
23240;PMS7003;11789;53.482;9.862;2023-01-19T04:37:41;46.67;42.00;25.33
23240;PMS7003;11789;53.482;9.862;2023-01-19T04:40:07;54.00;45.00;29.33
23240;PMS7003;11789;53.482;9.862;2023-01-19T04:42:33;45.33;40.67;25.33
23240;PMS7003;11789;53.482;9.862;2023-01-19T04:44:58;53.00;43.00;27.00
23240;PMS7003;11789;53.482;9.862;2023-01-19T04:47:24;52.00;44.00;28.00
23240;PMS7003;11789;53.482;9.862;2023-01-19T04:49:49;55.00;40.67;25.33
23240;PMS7003;11789;53.482;9.862;2023-01-19T04:52:14;44.67;38.00;25.33
23240;PMS7003;11789;53.482;9.862;2023-01-19T04:54:40;51.33;42.67;27.00
23240;PMS7003;11789;53.482;9.862;2023-01-19T04:57:05;55.33;42.67;28.00
23240;PMS7003;11789;53.482;9.862;2023-01-19T04:59:31;63.00;51.67;31.67
23240;PMS7003;11789;53.482;9.862;2023-01-19T05:01:56;52.00;43.00;25.33
23240;PMS7003;11789;53.482;9.862;2023-01-19T05:04:22;51.33;41.00;25.67
23240;PMS7003;11789;53.482;9.862;2023-01-19T05:06:49;62.67;43.33;27.00
23240;PMS7003;11789;53.482;9.862;2023-01-19T05:09:15;76.00;56.25;33.50
23240;PMS7003;11789;53.482;9.862;2023-01-19T05:11:41;52.00;41.33;24.67
23240;PMS7003;11789;53.482;9.862;2023-01-19T05:14:06;64.33;48.67;28.67
23240;PMS7003;11789;53.482;9.862;2023-01-19T05:16:32;39.00;38.33;25.67
23240;PMS7003;11789;53.482;9.862;2023-01-19T05:18:58;55.33;43.00;28.00
23240;PMS7003;11789;53.482;9.862;2023-01-19T05:21:24;58.00;42.00;25.33
23240;PMS7003;11789;53.482;9.862;2023-01-19T05:23:50;58.67;45.33;28.33
23240;PMS7003;11789;53.482;9.862;2023-01-19T05:26:15;54.33;44.00;28.00
23240;PMS7003;11789;53.482;9.862;2023-01-19T05:28:40;56.67;45.33;28.00
23240;PMS7003;11789;53.482;9.862;2023-01-19T05:31:06;68.00;55.50;33.50
23240;PMS7003;11789;53.482;9.862;2023-01-19T05:33:31;59.33;45.00;27.00
23240;PMS7003;11789;53.482;9.862;2023-01-19T05:35:57;58.67;46.33;28.00
23240;PMS7003;11789;53.482;9.862;2023-01-19T05:38:22;61.00;49.67;33.00
23240;PMS7003;11789;53.482;9.862;2023-01-19T05:40:48;58.67;46.00;28.00
23240;PMS7003;11789;53.482;9.862;2023-01-19T05:43:14;51.33;43.00;26.67
23240;PMS7003;11789;53.482;9.862;2023-01-19T05:45:40;57.33;45.67;29.33
23240;PMS7003;11789;53.482;9.862;2023-01-19T05:48:05;56.33;43.33;28.00
23240;PMS7003;11789;53.482;9.862;2023-01-19T05:50:32;56.00;42.67;27.33
23240;PMS7003;11789;53.482;9.862;2023-01-19T05:52:58;58.00;45.67;29.00
23240;PMS7003;11789;53.482;9.862;2023-01-19T05:55:24;54.00;45.67;26.33
23240;PMS7003;11789;53.482;9.862;2023-01-19T05:57:50;58.33;45.00;28.00
23240;PMS7003;11789;53.482;9.862;2023-01-19T06:00:15;49.00;41.00;27.00
23240;PMS7003;11789;53.482;9.862;2023-01-19T06:02:41;57.00;45.33;27.33
23240;PMS7003;11789;53.482;9.862;2023-01-19T06:05:07;56.00;43.67;26.67
23240;PMS7003;11789;53.482;9.862;2023-01-19T06:07:33;56.33;47.00;29.00
23240;PMS7003;11789;53.482;9.862;2023-01-19T06:09:59;47.33;40.00;24.67
23240;PMS7003;11789;53.482;9.862;2023-01-19T06:12:24;46.00;40.33;28.00
23240;PMS7003;11789;53.482;9.862;2023-01-19T06:14:50;58.00;47.33;27.67
23240;PMS7003;11789;53.482;9.862;2023-01-19T06:17:15;48.67;41.67;25.67
23240;PMS7003;11789;53.482;9.862;2023-01-19T06:19:41;57.00;44.67;25.00
23240;PMS7003;11789;53.482;9.862;2023-01-19T06:22:07;5.33;3.67;0.00
23240;PMS7003;11789;53.482;9.862;2023-01-19T06:24:33;57.67;46.00;26.67
23240;PMS7003;11789;53.482;9.862;2023-01-19T06:26:58;56.67;45.67;26.67
23240;PMS7003;11789;53.482;9.862;2023-01-19T06:29:24;57.33;44.67;28.00
23240;PMS7003;11789;53.482;9.862;2023-01-19T06:31:51;59.00;45.67;25.33
23240;PMS7003;11789;53.482;9.862;2023-01-19T06:34:16;54.67;46.67;28.00
23240;PMS7003;11789;53.482;9.862;2023-01-19T06:36:43;58.00;46.00;28.00
23240;PMS7003;11789;53.482;9.862;2023-01-19T06:39:09;54.33;45.67;27.67
23240;PMS7003;11789;53.482;9.862;2023-01-19T06:41:35;56.67;45.33;27.00
23240;PMS7003;11789;53.482;9.862;2023-01-19T06:44:01;48.00;43.33;25.67
23240;PMS7003;11789;53.482;9.862;2023-01-19T06:46:27;54.33;45.33;28.00
23240;PMS7003;11789;53.482;9.862;2023-01-19T06:48:53;57.67;44.67;27.00
23240;PMS7003;11789;53.482;9.862;2023-01-19T06:51:19;55.00;44.67;28.00
23240;PMS7003;11789;53.482;9.862;2023-01-19T06:53:44;61.33;46.67;26.33
23240;PMS7003;11789;53.482;9.862;2023-01-19T06:56:10;54.67;41.00;26.33
23240;PMS7003;11789;53.482;9.862;2023-01-19T06:58:35;56.67;44.67;27.00
23240;PMS7003;11789;53.482;9.862;2023-01-19T07:01:02;57.67;46.67;27.33
23240;PMS7003;11789;53.482;9.862;2023-01-19T07:03:28;56.33;43.67;28.00
23240;PMS7003;11789;53.482;9.862;2023-01-19T07:05:54;55.67;44.33;25.33
23240;PMS7003;11789;53.482;9.862;2023-01-19T07:08:21;61.00;48.33;27.33
23240;PMS7003;11789;53.482;9.862;2023-01-19T07:10:47;59.33;47.00;27.33
23240;PMS7003;11789;53.482;9.862;2023-01-19T07:13:12;61.33;47.00;27.33
23240;PMS7003;11789;53.482;9.862;2023-01-19T07:15:38;50.00;43.00;24.33
23240;PMS7003;11789;53.482;9.862;2023-01-19T07:18:03;60.00;46.33;28.33
23240;PMS7003;11789;53.482;9.862;2023-01-19T07:20:34;59.67;47.00;28.00
23240;PMS7003;11789;53.482;9.862;2023-01-19T07:23:00;59.00;45.00;27.33
23240;PMS7003;11789;53.482;9.862;2023-01-19T07:25:25;65.33;49.67;30.33
23240;PMS7003;11789;53.482;9.862;2023-01-19T07:27:55;61.00;46.33;25.33
23240;PMS7003;11789;53.482;9.862;2023-01-19T07:30:21;60.33;48.33;28.67
23240;PMS7003;11789;53.482;9.862;2023-01-19T07:32:46;73.50;58.00;32.25
23240;PMS7003;11789;53.482;9.862;2023-01-19T07:35:12;64.25;49.75;26.50
23240;PMS7003;11789;53.482;9.862;2023-01-19T07:37:38;65.67;51.00;30.00
23240;PMS7003;11789;53.482;9.862;2023-01-19T07:40:04;64.67;47.67;28.00
23240;PMS7003;11789;53.482;9.862;2023-01-19T07:42:29;62.00;45.67;28.33
23240;PMS7003;11789;53.482;9.862;2023-01-19T07:44:55;75.25;56.50;34.00
23240;PMS7003;11789;53.482;9.862;2023-01-19T07:47:21;64.67;50.33;27.67
23240;PMS7003;11789;53.482;9.862;2023-01-19T07:49:46;65.50;53.75;30.50
23240;PMS7003;11789;53.482;9.862;2023-01-19T07:52:11;63.67;49.67;29.00
23240;PMS7003;11789;53.482;9.862;2023-01-19T07:54:37;62.75;48.50;29.50
23240;PMS7003;11789;53.482;9.862;2023-01-19T07:57:03;65.25;52.25;30.00
23240;PMS7003;11789;53.482;9.862;2023-01-19T07:59:29;65.33;47.67;28.67
23240;PMS7003;11789;53.482;9.862;2023-01-19T08:01:55;57.00;47.00;28.00
23240;PMS7003;11789;53.482;9.862;2023-01-19T08:04:23;58.00;47.67;27.33
23240;PMS7003;11789;53.482;9.862;2023-01-19T08:06:52;58.00;47.00;28.00
23240;PMS7003;11789;53.482;9.862;2023-01-19T08:09:18;61.00;48.00;29.67
23240;PMS7003;11789;53.482;9.862;2023-01-19T08:11:43;61.33;49.00;28.67
23240;PMS7003;11789;53.482;9.862;2023-01-19T08:14:09;60.33;47.00;28.00
23240;PMS7003;11789;53.482;9.862;2023-01-19T08:16:34;54.67;45.33;27.00
23240;PMS7003;11789;53.482;9.862;2023-01-19T08:19:01;61.00;48.33;28.00
23240;PMS7003;11789;53.482;9.862;2023-01-19T08:21:27;61.33;44.67;25.33
23240;PMS7003;11789;53.482;9.862;2023-01-19T08:23:53;60.67;44.67;26.33
23240;PMS7003;11789;53.482;9.862;2023-01-19T08:26:20;61.33;42.00;25.33
23240;PMS7003;11789;53.482;9.862;2023-01-19T08:28:57;52.67;43.67;25.33
23240;PMS7003;11789;53.482;9.862;2023-01-19T08:31:26;60.67;46.00;27.33
23240;PMS7003;11789;53.482;9.862;2023-01-19T08:33:52;57.00;42.00;25.67
23240;PMS7003;11789;53.482;9.862;2023-01-19T08:36:18;56.33;45.00;28.00
23240;PMS7003;11789;53.482;9.862;2023-01-19T08:38:44;54.00;42.00;25.33
23240;PMS7003;11789;53.482;9.862;2023-01-19T08:41:11;51.00;42.00;25.67
23240;PMS7003;11789;53.482;9.862;2023-01-19T08:43:37;55.67;44.33;26.00
23240;PMS7003;11789;53.482;9.862;2023-01-19T08:46:02;51.00;40.33;25.00
23240;PMS7003;11789;53.482;9.862;2023-01-19T08:48:29;56.67;44.33;25.00
23240;PMS7003;11789;53.482;9.862;2023-01-19T08:50:54;55.67;42.00;24.67
23240;PMS7003;11789;53.482;9.862;2023-01-19T08:53:20;52.33;42.00;25.00
23240;PMS7003;11789;53.482;9.862;2023-01-19T08:55:47;56.33;45.33;28.00
23240;PMS7003;11789;53.482;9.862;2023-01-19T08:58:14;58.67;44.33;25.00
23240;PMS7003;11789;53.482;9.862;2023-01-19T09:00:39;52.67;42.67;25.67
23240;PMS7003;11789;53.482;9.862;2023-01-19T09:03:06;54.00;44.33;27.00
23240;PMS7003;11789;53.482;9.862;2023-01-19T09:05:34;53.00;45.33;27.33
23240;PMS7003;11789;53.482;9.862;2023-01-19T09:08:07;49.00;42.67;27.00
23240;PMS7003;11789;53.482;9.862;2023-01-19T09:10:35;51.67;42.33;25.00
23240;PMS7003;11789;53.482;9.862;2023-01-19T09:13:02;58.33;44.67;27.33
23240;PMS7003;11789;53.482;9.862;2023-01-19T09:15:29;57.33;45.33;27.00
23240;PMS7003;11789;53.482;9.862;2023-01-19T09:17:56;56.67;43.00;25.33
23240;PMS7003;11789;53.482;9.862;2023-01-19T09:20:22;62.33;48.00;27.33
23240;PMS7003;11789;53.482;9.862;2023-01-19T09:22:47;26.67;24.67;10.00
23240;PMS7003;11789;53.482;9.862;2023-01-19T09:25:13;48.00;42.33;26.33
23240;PMS7003;11789;53.482;9.862;2023-01-19T09:27:38;48.33;42.00;25.00
23240;PMS7003;11789;53.482;9.862;2023-01-19T09:30:04;58.67;48.00;28.00
23240;PMS7003;11789;53.482;9.862;2023-01-19T09:32:31;58.33;45.00;25.00
23240;PMS7003;11789;53.482;9.862;2023-01-19T09:34:56;51.67;42.67;26.67
23240;PMS7003;11789;53.482;9.862;2023-01-19T09:37:22;59.67;47.00;27.33
23240;PMS7003;11789;53.482;9.862;2023-01-19T09:39:47;63.67;48.33;29.00
23240;PMS7003;11789;53.482;9.862;2023-01-19T09:44:51;68.25;54.00;30.25
23240;PMS7003;11789;53.482;9.862;2023-01-19T09:47:20;48.00;41.33;25.00
23240;PMS7003;11789;53.482;9.862;2023-01-19T09:49:51;44.00;41.33;25.00
23240;PMS7003;11789;53.482;9.862;2023-01-19T09:52:23;52.33;41.00;24.33
23240;PMS7003;11789;53.482;9.862;2023-01-19T09:57:19;44.67;39.00;24.33
23240;PMS7003;11789;53.482;9.862;2023-01-19T09:59:46;52.33;41.00;24.00
23240;PMS7003;11789;53.482;9.862;2023-01-19T10:11:02;53.00;42.33;26.00
23240;PMS7003;11789;53.482;9.862;2023-01-19T10:13:46;42.00;37.33;23.33
23240;PMS7003;11789;53.482;9.862;2023-01-19T10:16:25;57.00;43.33;25.33
23240;PMS7003;11789;53.482;9.862;2023-01-19T10:18:56;50.00;42.00;25.00
23240;PMS7003;11789;53.482;9.862;2023-01-19T10:21:27;51.67;39.33;22.00
23240;PMS7003;11789;53.482;9.862;2023-01-19T10:23:58;46.33;37.67;24.67
23240;PMS7003;11789;53.482;9.862;2023-01-19T10:26:33;47.33;43.00;25.33
23240;PMS7003;11789;53.482;9.862;2023-01-19T10:31:36;49.33;38.00;24.33
23240;PMS7003;11789;53.482;9.862;2023-01-19T10:34:03;42.00;40.00;22.00
23240;PMS7003;11789;53.482;9.862;2023-01-19T10:36:33;43.67;38.33;24.67
23240;PMS7003;11789;53.482;9.862;2023-01-19T10:39:02;47.33;40.00;25.00
23240;PMS7003;11789;53.482;9.862;2023-01-19T10:41:30;54.00;39.67;22.00
23240;PMS7003;11789;53.482;9.862;2023-01-19T10:44:06;41.00;37.33;21.33
23240;PMS7003;11789;53.482;9.862;2023-01-19T10:46:44;46.00;41.00;25.00
23240;PMS7003;11789;53.482;9.862;2023-01-19T10:52:06;52.00;41.33;25.00
23240;PMS7003;11789;53.482;9.862;2023-01-19T10:54:43;49.67;40.67;23.67
23240;PMS7003;11789;53.482;9.862;2023-01-19T10:57:09;48.67;41.00;24.00
23240;PMS7003;11789;53.482;9.862;2023-01-19T11:04:40;46.67;39.33;24.33
23240;PMS7003;11789;53.482;9.862;2023-01-19T11:09:57;43.67;38.00;23.33
23240;PMS7003;11789;53.482;9.862;2023-01-19T11:12:55;52.67;40.67;24.67
23240;PMS7003;11789;53.482;9.862;2023-01-19T11:15:22;50.00;39.67;25.00
23240;PMS7003;11789;53.482;9.862;2023-01-19T11:17:55;52.67;43.00;26.67
23240;PMS7003;11789;53.482;9.862;2023-01-19T11:20:25;45.67;40.67;25.00
23240;PMS7003;11789;53.482;9.862;2023-01-19T11:25:40;47.67;40.00;25.00
23240;PMS7003;11789;53.482;9.862;2023-01-19T11:28:18;52.00;40.33;26.67
23240;PMS7003;11789;53.482;9.862;2023-01-19T11:30:54;55.33;41.67;26.33
23240;PMS7003;11789;53.482;9.862;2023-01-19T11:33:25;58.00;44.00;27.00
23240;PMS7003;11789;53.482;9.862;2023-01-19T11:36:02;46.33;41.00;25.33
23240;PMS7003;11789;53.482;9.862;2023-01-19T11:38:29;48.67;41.33;23.33
23240;PMS7003;11789;53.482;9.862;2023-01-19T11:40:56;51.33;43.33;25.00
23240;PMS7003;11789;53.482;9.862;2023-01-19T11:43:26;51.33;41.33;25.00
23240;PMS7003;11789;53.482;9.862;2023-01-19T11:45:53;51.67;41.00;25.00
23240;PMS7003;11789;53.482;9.862;2023-01-19T11:48:54;53.33;42.00;25.00
23240;PMS7003;11789;53.482;9.862;2023-01-19T11:51:42;49.67;40.33;25.00
23240;PMS7003;11789;53.482;9.862;2023-01-19T11:54:20;41.67;37.33;24.33
23240;PMS7003;11789;53.482;9.862;2023-01-19T11:56:52;35.00;35.00;22.00
23240;PMS7003;11789;53.482;9.862;2023-01-19T11:59:19;49.00;40.33;25.00
23240;PMS7003;11789;53.482;9.862;2023-01-19T12:01:49;55.00;43.33;25.00
23240;PMS7003;11789;53.482;9.862;2023-01-19T12:04:23;50.00;40.00;23.33
23240;PMS7003;11789;53.482;9.862;2023-01-19T12:06:54;45.67;40.67;22.33
23240;PMS7003;11789;53.482;9.862;2023-01-19T12:09:23;65.67;54.00;31.00
23240;PMS7003;11789;53.482;9.862;2023-01-19T12:12:01;46.33;39.33;21.67
23240;PMS7003;11789;53.482;9.862;2023-01-19T12:14:42;44.67;38.33;21.67
23240;PMS7003;11789;53.482;9.862;2023-01-19T12:17:26;47.67;38.67;21.00
23240;PMS7003;11789;53.482;9.862;2023-01-19T12:22:50;46.00;39.67;23.00
23240;PMS7003;11789;53.482;9.862;2023-01-19T12:25:24;47.33;38.00;23.33
23240;PMS7003;11789;53.482;9.862;2023-01-19T12:28:03;41.67;34.33;20.33
23240;PMS7003;11789;53.482;9.862;2023-01-19T12:30:33;43.33;35.33;22.00
23240;PMS7003;11789;53.482;9.862;2023-01-19T12:33:45;41.00;34.67;20.00
23240;PMS7003;11789;53.482;9.862;2023-01-19T12:46:34;39.00;34.67;17.67
23240;PMS7003;11789;53.482;9.862;2023-01-19T12:49:05;56.00;41.00;23.00
23240;PMS7003;11789;53.482;9.862;2023-01-19T12:51:47;44.67;33.67;20.67
23240;PMS7003;11789;53.482;9.862;2023-01-19T12:54:18;44.00;39.67;20.00
23240;PMS7003;11789;53.482;9.862;2023-01-19T12:56:54;45.67;40.00;22.67
23240;PMS7003;11789;53.482;9.862;2023-01-19T12:59:24;50.00;37.33;22.33
23240;PMS7003;11789;53.482;9.862;2023-01-19T13:15:51;40.33;33.33;20.00
23240;PMS7003;11789;53.482;9.862;2023-01-19T13:18:25;41.67;34.67;21.67
23240;PMS7003;11789;53.482;9.862;2023-01-19T13:23:27;41.67;37.33;21.67
23240;PMS7003;11789;53.482;9.862;2023-01-19T13:26:22;39.67;35.33;20.00
23240;PMS7003;11789;53.482;9.862;2023-01-19T13:28:54;41.00;37.67;20.67
23240;PMS7003;11789;53.482;9.862;2023-01-19T13:31:25;40.67;36.00;21.00
23240;PMS7003;11789;53.482;9.862;2023-01-19T13:33:58;41.00;35.67;17.00
23240;PMS7003;11789;53.482;9.862;2023-01-19T13:36:35;38.00;33.00;21.00
23240;PMS7003;11789;53.482;9.862;2023-01-19T13:39:05;41.67;33.33;19.33
23240;PMS7003;11789;53.482;9.862;2023-01-19T13:41:37;40.67;37.00;17.00
23240;PMS7003;11789;53.482;9.862;2023-01-19T13:44:26;35.33;31.67;19.33
23240;PMS7003;11789;53.482;9.862;2023-01-19T13:46:53;32.67;28.00;18.33
23240;PMS7003;11789;53.482;9.862;2023-01-19T13:49:34;34.00;29.00;18.00
23240;PMS7003;11789;53.482;9.862;2023-01-19T13:52:03;34.00;28.67;17.00
23240;PMS7003;11789;53.482;9.862;2023-01-19T13:54:30;37.33;34.00;18.67
23240;PMS7003;11789;53.482;9.862;2023-01-19T13:56:55;35.67;32.33;18.00
23240;PMS7003;11789;53.482;9.862;2023-01-19T13:59:21;36.33;34.33;21.33
23240;PMS7003;11789;53.482;9.862;2023-01-19T14:01:46;38.33;37.00;23.33
23240;PMS7003;11789;53.482;9.862;2023-01-19T14:06:50;32.00;30.67;18.00
23240;PMS7003;11789;53.482;9.862;2023-01-19T14:09:19;56.00;44.33;24.67
23240;PMS7003;11789;53.482;9.862;2023-01-19T14:14:31;39.67;35.67;19.33
23240;PMS7003;11789;53.482;9.862;2023-01-19T14:16:57;44.33;39.00;23.33
23240;PMS7003;11789;53.482;9.862;2023-01-19T14:19:23;36.00;31.33;18.33
23240;PMS7003;11789;53.482;9.862;2023-01-19T14:22:03;33.67;32.00;19.00
23240;PMS7003;11789;53.482;9.862;2023-01-19T14:24:29;31.00;28.00;18.00
23240;PMS7003;11789;53.482;9.862;2023-01-19T14:29:42;29.33;29.33;17.33
23240;PMS7003;11789;53.482;9.862;2023-01-19T14:37:21;45.33;40.33;26.00
23240;PMS7003;11789;53.482;9.862;2023-01-19T14:39:49;31.00;29.33;17.33
23240;PMS7003;11789;53.482;9.862;2023-01-19T14:42:52;41.67;32.67;18.00
23240;PMS7003;11789;53.482;9.862;2023-01-19T14:45:23;28.67;26.67;16.00
23240;PMS7003;11789;53.482;9.862;2023-01-19T14:47:58;35.33;31.67;17.33
23240;PMS7003;11789;53.482;9.862;2023-01-19T14:50:31;37.00;33.33;19.33
23240;PMS7003;11789;53.482;9.862;2023-01-19T14:53:01;34.00;27.67;16.00
23240;PMS7003;11789;53.482;9.862;2023-01-19T14:58:10;32.00;29.00;15.00
23240;PMS7003;11789;53.482;9.862;2023-01-19T15:00:38;28.67;25.00;13.00
23240;PMS7003;11789;53.482;9.862;2023-01-19T15:03:05;36.67;27.33;16.00
23240;PMS7003;11789;53.482;9.862;2023-01-19T15:05:31;36.33;31.33;16.00
23240;PMS7003;11789;53.482;9.862;2023-01-19T15:07:57;31.33;31.33;16.00
23240;PMS7003;11789;53.482;9.862;2023-01-19T15:10:23;36.33;28.67;17.33
23240;PMS7003;11789;53.482;9.862;2023-01-19T15:12:50;26.67;26.00;16.33
23240;PMS7003;11789;53.482;9.862;2023-01-19T15:15:28;27.33;24.67;16.33
23240;PMS7003;11789;53.482;9.862;2023-01-19T15:17:56;27.67;26.00;16.00
23240;PMS7003;11789;53.482;9.862;2023-01-19T15:20:24;31.00;27.00;15.67
23240;PMS7003;11789;53.482;9.862;2023-01-19T15:22:50;28.67;26.33;15.33
23240;PMS7003;11789;53.482;9.862;2023-01-19T15:25:17;31.33;25.00;15.00
23240;PMS7003;11789;53.482;9.862;2023-01-19T15:27:44;25.67;22.33;12.33
23240;PMS7003;11789;53.482;9.862;2023-01-19T15:30:15;32.00;26.67;15.67
23240;PMS7003;11789;53.482;9.862;2023-01-19T15:32:46;29.33;26.00;15.00
23240;PMS7003;11789;53.482;9.862;2023-01-19T15:35:16;28.33;25.67;15.00